createdAt,value
2023-02-11T00:00:54.413Z,5.83
2023-02-11T00:05:58.597Z,5.93
2023-02-11T00:11:00.405Z,6.10
2023-02-11T00:16:10.268Z,6.70
2023-02-11T00:21:17.853Z,6.77
2023-02-11T00:26:26.031Z,6.63
2023-02-11T00:31:28.194Z,6.07
2023-02-11T00:36:30.412Z,6.10
2023-02-11T00:41:32.710Z,7.00
2023-02-11T00:46:34.951Z,7.00
2023-02-11T00:51:37.089Z,6.30
2023-02-11T00:56:39.076Z,6.17
2023-02-11T01:01:41.444Z,5.37
2023-02-11T01:06:44.691Z,5.87
2023-02-11T01:11:46.791Z,6.03
2023-02-11T01:16:49.025Z,5.77
2023-02-11T01:21:51.045Z,6.93
2023-02-11T01:26:57.212Z,6.17
2023-02-11T01:32:00.916Z,6.33
2023-02-11T01:37:02.861Z,6.03
2023-02-11T01:42:05.156Z,5.67
2023-02-11T01:47:07.572Z,6.27
2023-02-11T01:52:19.629Z,5.77
2023-02-11T01:57:27.426Z,6.00
2023-02-11T02:02:37.191Z,6.37
2023-02-11T02:07:49.728Z,6.13
2023-02-11T02:12:51.724Z,7.47
2023-02-11T02:18:03.713Z,6.30
2023-02-11T02:23:44.604Z,6.57
2023-02-11T02:29:39.779Z,6.00
2023-02-11T02:34:50.176Z,6.53
2023-02-11T02:39:51.947Z,6.30
2023-02-11T02:44:56.107Z,6.57
2023-02-11T02:49:58.248Z,5.93
2023-02-11T02:55:20.256Z,5.97
2023-02-11T03:00:42.325Z,5.97
2023-02-11T03:06:05.006Z,6.10
2023-02-11T03:11:09.651Z,5.87
2023-02-11T03:16:22.362Z,5.63
2023-02-11T03:21:25.687Z,5.37
2023-02-11T03:26:38.865Z,6.00
2023-02-11T03:31:52.927Z,5.37
2023-02-11T03:36:59.845Z,5.93
2023-02-11T03:42:04.108Z,6.20
2023-02-11T03:47:09.304Z,6.30
2023-02-11T03:52:13.177Z,6.93
2023-02-11T03:57:15.108Z,7.47
2023-02-11T04:02:17.250Z,7.17
2023-02-11T04:07:19.143Z,6.87
2023-02-11T04:12:21.174Z,6.97
2023-02-11T04:17:23.033Z,7.80
2023-02-11T04:22:24.851Z,7.60
2023-02-11T04:27:26.622Z,7.60
2023-02-11T04:32:28.596Z,8.70
2023-02-11T04:37:30.416Z,7.73
2023-02-11T04:42:32.284Z,7.13
2023-02-11T04:47:34.520Z,7.23
2023-02-11T04:52:36.459Z,8.10
2023-02-11T04:57:38.473Z,8.67
2023-02-11T05:02:40.386Z,8.43
2023-02-11T05:07:42.157Z,8.70
2023-02-11T05:12:44.081Z,8.27
2023-02-11T05:17:46.051Z,8.57
2023-02-11T05:22:48.277Z,9.87
2023-02-11T05:27:50.198Z,9.43
2023-02-11T05:32:52.130Z,9.67
2023-02-11T05:37:54.337Z,9.93
2023-02-11T05:42:56.288Z,10.60
2023-02-11T05:47:58.286Z,10.87
2023-02-11T05:53:00.386Z,12.13
2023-02-11T05:58:02.824Z,10.63
2023-02-11T06:03:04.970Z,10.67
2023-02-11T06:08:06.900Z,11.80
2023-02-11T06:13:09.035Z,11.63
2023-02-11T06:18:11.153Z,10.80
2023-02-11T06:23:13.084Z,11.00
2023-02-11T06:28:14.894Z,11.27
2023-02-11T06:33:16.794Z,12.10
2023-02-11T06:38:18.588Z,12.43
2023-02-11T06:43:20.443Z,15.30
2023-02-11T06:48:23.485Z,12.30
2023-02-11T06:53:25.415Z,13.17
2023-02-11T06:58:27.326Z,14.07
2023-02-11T07:03:30.472Z,12.97
2023-02-11T07:08:36.677Z,13.40
2023-02-11T07:13:38.804Z,15.93
2023-02-11T07:18:41.289Z,14.87
2023-02-11T07:23:43.543Z,16.27
2023-02-11T07:28:45.888Z,15.13
2023-02-11T07:33:48.160Z,16.63
2023-02-11T07:38:50.465Z,16.43
2023-02-11T07:43:53.205Z,17.03
2023-02-11T07:48:55.816Z,16.83
2023-02-11T07:53:59.467Z,16.27
2023-02-11T07:59:03.402Z,17.67
2023-02-11T08:04:05.452Z,17.13
2023-02-11T08:09:09.546Z,16.50
2023-02-11T08:14:12.459Z,17.00
2023-02-11T08:19:15.762Z,24.13
2023-02-11T08:24:17.567Z,18.53
2023-02-11T08:29:19.380Z,16.47
2023-02-11T08:34:21.992Z,15.90
2023-02-11T08:39:23.771Z,17.17
2023-02-11T08:44:25.857Z,17.93
2023-02-11T08:49:27.727Z,17.83
2023-02-11T08:54:31.264Z,18.73
2023-02-11T08:59:33.300Z,20.30
2023-02-11T09:04:35.214Z,18.10
2023-02-11T09:09:37.058Z,19.17
2023-02-11T09:14:39.167Z,18.63
2023-02-11T09:19:41.196Z,20.03
2023-02-11T09:24:43.115Z,19.87
2023-02-11T09:29:44.947Z,20.53
2023-02-11T09:34:46.866Z,20.27
2023-02-11T09:39:48.955Z,20.90
2023-02-11T09:44:51.102Z,23.10
2023-02-11T09:50:00.175Z,22.50
2023-02-11T09:55:18.708Z,23.00
2023-02-11T10:01:14.562Z,20.83
2023-02-11T10:06:28.397Z,22.87
2023-02-11T10:11:46.319Z,23.03
2023-02-11T10:17:09.971Z,22.20
2023-02-11T10:22:22.308Z,21.90
2023-02-11T10:27:32.259Z,24.23
2023-02-11T10:32:52.763Z,22.63
2023-02-11T10:37:56.041Z,23.27
2023-02-11T10:43:04.553Z,22.17
2023-02-11T10:48:27.059Z,23.00
2023-02-11T10:53:29.195Z,24.27
2023-02-11T10:58:35.283Z,21.00
2023-02-11T11:03:45.736Z,24.30
2023-02-11T11:08:48.961Z,23.43
2023-02-11T11:13:53.882Z,22.23
2023-02-11T11:19:08.031Z,22.57
2023-02-11T11:24:24.135Z,22.53
2023-02-11T11:29:35.776Z,22.73
2023-02-11T11:34:41.836Z,21.60
2023-02-11T11:39:53.045Z,24.07
2023-02-11T11:45:02.439Z,22.70
2023-02-11T11:50:23.180Z,23.90
2023-02-11T11:55:29.318Z,22.37
2023-02-11T12:00:50.007Z,24.97
2023-02-11T12:06:07.385Z,23.70
2023-02-11T12:11:29.526Z,26.50
2023-02-11T12:16:34.704Z,23.50
2023-02-11T12:22:01.328Z,24.80
2023-02-11T12:27:18.570Z,23.43
2023-02-11T12:32:36.450Z,22.67
2023-02-11T12:38:06.336Z,25.80
2023-02-11T12:43:29.915Z,24.63
2023-02-11T12:49:10.309Z,26.03
2023-02-11T12:54:30.585Z,25.30
2023-02-11T12:59:49.960Z,23.83
2023-02-11T13:04:59.862Z,25.70
2023-02-11T13:10:13.835Z,24.90
2023-02-11T13:15:16.237Z,24.83
2023-02-11T13:20:49.267Z,24.47
2023-02-11T13:25:58.679Z,24.10
2023-02-11T13:31:07.001Z,24.50
2023-02-11T13:36:08.802Z,23.97
2023-02-11T13:41:24.730Z,22.90
2023-02-11T13:46:48.971Z,23.63
2023-02-11T13:51:52.159Z,22.37
2023-02-11T13:57:22.183Z,25.30
2023-02-11T14:02:50.517Z,23.77
2023-02-11T14:08:29.566Z,25.67
2023-02-11T14:13:47.249Z,28.97
2023-02-11T14:18:49.155Z,23.30
2023-02-11T14:23:56.039Z,22.97
2023-02-11T14:29:17.920Z,23.97
2023-02-11T14:34:46.217Z,25.40
2023-02-11T14:39:54.239Z,24.20
2023-02-11T14:44:59.012Z,24.27
2023-02-11T14:50:01.470Z,24.30
2023-02-11T14:55:21.439Z,24.73
2023-02-11T15:00:23.598Z,23.33
2023-02-11T15:05:28.953Z,25.67
2023-02-11T15:10:53.888Z,24.63
2023-02-11T15:16:00.243Z,24.13
2023-02-11T15:21:02.645Z,23.87
2023-02-11T15:26:13.363Z,24.73
2023-02-11T15:31:17.282Z,24.57
2023-02-11T15:36:23.715Z,24.10
2023-02-11T15:41:37.682Z,27.47
2023-02-11T15:46:40.380Z,25.23
2023-02-11T15:51:46.564Z,27.00
2023-02-11T15:56:52.260Z,25.23
2023-02-11T16:01:55.450Z,25.70
2023-02-11T16:06:57.836Z,25.40
2023-02-11T16:12:07.513Z,26.27
2023-02-11T16:17:13.219Z,26.57
2023-02-11T16:22:19.596Z,29.03
2023-02-11T16:27:30.421Z,27.63
2023-02-11T16:32:32.567Z,27.80
2023-02-11T16:37:35.404Z,28.07
2023-02-11T16:42:37.296Z,28.50
2023-02-11T16:47:41.556Z,27.80
2023-02-11T16:52:46.382Z,27.03
2023-02-11T16:57:50.283Z,30.73
2023-02-11T17:02:52.706Z,29.07
2023-02-11T17:07:54.635Z,28.60
2023-02-11T17:12:56.356Z,30.57
2023-02-11T17:17:59.065Z,28.27
2023-02-11T17:23:00.916Z,27.90
2023-02-11T17:28:07.422Z,29.17
2023-02-11T17:33:09.548Z,30.23
2023-02-11T17:38:11.516Z,30.97
2023-02-11T17:43:13.339Z,30.87
2023-02-11T17:48:15.122Z,31.93
2023-02-11T17:53:16.928Z,30.37
2023-02-11T17:58:18.686Z,30.00
2023-02-11T18:03:20.780Z,30.07
2023-02-11T18:08:22.822Z,30.43
2023-02-11T18:13:25.044Z,31.27
2023-02-11T18:18:27.277Z,33.27
2023-02-11T18:23:29.618Z,31.90
2023-02-11T18:28:31.934Z,32.50
2023-02-11T18:33:34.388Z,32.50
2023-02-11T18:38:37.116Z,38.67
2023-02-11T18:43:40.172Z,33.93
2023-02-11T18:48:44.708Z,31.33
2023-02-11T18:53:47.123Z,31.57
2023-02-11T18:58:49.078Z,32.17
2023-02-11T19:03:51.326Z,33.07
2023-02-11T19:08:56.877Z,30.13
2023-02-11T19:14:00.740Z,29.30
2023-02-11T19:19:03.066Z,29.23
2023-02-11T19:24:08.869Z,31.17
2023-02-11T19:29:11.055Z,35.83
2023-02-11T19:34:14.771Z,33.53
2023-02-11T19:39:17.176Z,33.23
2023-02-11T19:44:19.074Z,32.83
2023-02-11T19:49:26.353Z,35.13
2023-02-11T19:54:31.186Z,37.10
2023-02-11T19:59:33.232Z,30.27
2023-02-11T20:04:35.086Z,34.87
2023-02-11T20:09:37.114Z,32.23
2023-02-11T20:14:39.380Z,30.10
2023-02-11T20:19:41.512Z,30.13
2023-02-11T20:24:43.746Z,29.23
2023-02-11T20:29:45.587Z,29.97
2023-02-11T20:34:47.989Z,29.00
2023-02-11T20:39:50.974Z,27.03
2023-02-11T20:44:53.124Z,27.27
2023-02-11T20:49:55.846Z,28.97
2023-02-11T20:54:57.707Z,28.10
2023-02-11T20:59:59.630Z,28.47
2023-02-11T21:05:01.422Z,27.73
2023-02-11T21:10:04.056Z,27.50
2023-02-11T21:15:07.767Z,26.57
2023-02-11T21:20:10.241Z,26.23
2023-02-11T21:25:12.228Z,26.23
2023-02-11T21:30:14.885Z,25.30
2023-02-11T21:35:17.075Z,26.00
2023-02-11T21:40:22.141Z,26.17
2023-02-11T21:45:25.701Z,28.23
2023-02-11T21:50:28.025Z,24.60
2023-02-11T21:55:30.492Z,24.73
2023-02-11T22:00:33.318Z,25.30
2023-02-11T22:05:35.351Z,25.73
2023-02-11T22:10:37.641Z,26.07
2023-02-11T22:15:39.719Z,23.07
2023-02-11T22:20:41.797Z,24.20
2023-02-11T22:25:46.779Z,22.93
2023-02-11T22:30:56.662Z,22.47
2023-02-11T22:36:07.965Z,21.10
2023-02-11T22:41:11.599Z,21.87
2023-02-11T22:46:17.187Z,22.03
2023-02-11T22:51:22.765Z,21.20
2023-02-11T22:56:25.558Z,20.80
2023-02-11T23:01:42.650Z,20.67
2023-02-11T23:06:45.886Z,18.93
2023-02-11T23:11:49.336Z,19.50
2023-02-11T23:16:51.513Z,17.33
2023-02-11T23:21:53.386Z,17.60
2023-02-11T23:26:55.223Z,16.20
2023-02-11T23:31:58.918Z,12.43
2023-02-11T23:37:01.048Z,12.63
2023-02-11T23:42:03.260Z,12.70
2023-02-11T23:47:05.105Z,13.67
2023-02-11T23:52:07.146Z,12.63
2023-02-11T23:57:09.093Z,11.87
